CheckWX is a tool to help pilots better visualize weather data.  It is not intended as a substitute for an official pre-flight weather briefing.

06:44:04 UTC

CYXC TAF
Cranbrook Airport
Cranbrook, Canada
TAF CYXC 160038Z 1601/1613 VRB03KT P6SM SCT080 BKN130 TEMPO 1601/1606 BKN080 FM160600 28006KT P6SM SCT130 RMK NXT FCST BY 160700Z

Jun-16@
01:00 UTC

Jun-16 @ 01:00 UTC

Jun-16@
06:00 UTC

Jun-16 @ 06:00 UTC

TAF CYXC 160038Z 1601/1613 VRB03KT P6SM SCT080 BKN130

Expired

Wind
  • Variable at 3 KTS
Cloud Levels
  • Scattered at 8,000' AGL
  • Broken at 13,000' AGL

Jun-16@
01:00 UTC

Jun-16 @ 01:00 UTC

Jun-16@
06:00 UTC

Jun-16 @ 06:00 UTC

TEMPO 1601/1606 BKN080

Expired

Cloud Levels
  • Broken at 8,000' AGL

Jun-16@
06:00 UTC

Jun-16 @ 06:00 UTC

Jun-16@
13:00 UTC

Jun-16 @ 13:00 UTC

FM160600 28006KT P6SM SCT130 RMK NXT FCST BY 160700Z

From

From Standard forecast or significant change

Wind
  • 280° at 6 KTS
Cloud Levels
  • Scattered at 13,000' AGL